sensor_id;sensor_type;location;lat;lon;timestamp;P1;durP1;ratioP1;P2;durP2;ratioP2
79662;SDS011;69130;48.724;8.982;2023-05-10T00:00:50;0.23;;;0.10;;
79662;SDS011;69130;48.724;8.982;2023-05-10T00:03:16;0.65;;;0.20;;
79662;SDS011;69130;48.724;8.982;2023-05-10T00:05:42;0.85;;;0.30;;
79662;SDS011;69130;48.724;8.982;2023-05-10T00:08:07;0.00;;;0.00;;
79662;SDS011;69130;48.724;8.982;2023-05-10T00:10:33;0.20;;;0.00;;
79662;SDS011;69130;48.724;8.982;2023-05-10T00:12:58;0.60;;;0.03;;
79662;SDS011;69130;48.724;8.982;2023-05-10T00:15:23;1.75;;;0.10;;
79662;SDS011;69130;48.724;8.982;2023-05-10T00:17:48;0.28;;;0.08;;
79662;SDS011;69130;48.724;8.982;2023-05-10T00:20:14;0.60;;;0.20;;
79662;SDS011;69130;48.724;8.982;2023-05-10T00:22:39;0.30;;;0.10;;
79662;SDS011;69130;48.724;8.982;2023-05-10T00:25:05;0.03;;;0.00;;
79662;SDS011;69130;48.724;8.982;2023-05-10T00:27:31;0.00;;;0.00;;
79662;SDS011;69130;48.724;8.982;2023-05-10T00:29:56;0.40;;;0.10;;
79662;SDS011;69130;48.724;8.982;2023-05-10T00:32:22;0.38;;;0.10;;
79662;SDS011;69130;48.724;8.982;2023-05-10T00:34:47;0.17;;;0.00;;
79662;SDS011;69130;48.724;8.982;2023-05-10T00:37:12;0.00;;;0.00;;
79662;SDS011;69130;48.724;8.982;2023-05-10T00:39:38;0.10;;;0.00;;
79662;SDS011;69130;48.724;8.982;2023-05-10T00:42:03;0.00;;;0.00;;
79662;SDS011;69130;48.724;8.982;2023-05-10T00:44:29;0.35;;;0.10;;
79662;SDS011;69130;48.724;8.982;2023-05-10T00:46:55;0.28;;;0.00;;
79662;SDS011;69130;48.724;8.982;2023-05-10T00:49:22;0.00;;;0.00;;
79662;SDS011;69130;48.724;8.982;2023-05-10T00:51:47;0.15;;;0.00;;
79662;SDS011;69130;48.724;8.982;2023-05-10T00:54:13;0.03;;;0.00;;
79662;SDS011;69130;48.724;8.982;2023-05-10T00:56:40;0.35;;;0.00;;
79662;SDS011;69130;48.724;8.982;2023-05-10T00:59:06;0.00;;;0.00;;
79662;SDS011;69130;48.724;8.982;2023-05-10T01:01:33;1.38;;;0.10;;
79662;SDS011;69130;48.724;8.982;2023-05-10T01:03:58;0.20;;;0.10;;
79662;SDS011;69130;48.724;8.982;2023-05-10T01:06:24;0.32;;;0.05;;
79662;SDS011;69130;48.724;8.982;2023-05-10T01:08:49;0.20;;;0.13;;
79662;SDS011;69130;48.724;8.982;2023-05-10T01:11:15;0.08;;;0.05;;
79662;SDS011;69130;48.724;8.982;2023-05-10T01:13:41;0.30;;;0.10;;
79662;SDS011;69130;48.724;8.982;2023-05-10T01:16:08;0.10;;;0.10;;
79662;SDS011;69130;48.724;8.982;2023-05-10T01:18:37;0.10;;;0.00;;
79662;SDS011;69130;48.724;8.982;2023-05-10T01:23:45;0.25;;;0.10;;
79662;SDS011;69130;48.724;8.982;2023-05-10T01:34:29;0.10;;;0.10;;
79662;SDS011;69130;48.724;8.982;2023-05-10T01:37:11;0.80;;;0.10;;
79662;SDS011;69130;48.724;8.982;2023-05-10T01:39:44;0.20;;;0.10;;
79662;SDS011;69130;48.724;8.982;2023-05-10T01:42:16;0.50;;;0.10;;
79662;SDS011;69130;48.724;8.982;2023-05-10T01:47:37;0.13;;;0.03;;
79662;SDS011;69130;48.724;8.982;2023-05-10T01:50:07;0.82;;;0.30;;
79662;SDS011;69130;48.724;8.982;2023-05-10T01:52:56;0.20;;;0.08;;
79662;SDS011;69130;48.724;8.982;2023-05-10T01:55:25;0.00;;;0.00;;
79662;SDS011;69130;48.724;8.982;2023-05-10T01:58:02;0.13;;;0.00;;
79662;SDS011;69130;48.724;8.982;2023-05-10T02:00:30;0.60;;;0.43;;
79662;SDS011;69130;48.724;8.982;2023-05-10T02:02:57;0.30;;;0.20;;
79662;SDS011;69130;48.724;8.982;2023-05-10T02:05:24;0.28;;;0.10;;
79662;SDS011;69130;48.724;8.982;2023-05-10T02:07:52;0.10;;;0.00;;
79662;SDS011;69130;48.724;8.982;2023-05-10T02:10:17;0.32;;;0.10;;
79662;SDS011;69130;48.724;8.982;2023-05-10T02:12:45;0.30;;;0.10;;
79662;SDS011;69130;48.724;8.982;2023-05-10T02:15:15;0.30;;;0.10;;
79662;SDS011;69130;48.724;8.982;2023-05-10T02:17:45;1.25;;;0.38;;
79662;SDS011;69130;48.724;8.982;2023-05-10T02:20:12;0.17;;;0.05;;
79662;SDS011;69130;48.724;8.982;2023-05-10T02:22:40;0.10;;;0.10;;
79662;SDS011;69130;48.724;8.982;2023-05-10T02:25:08;0.75;;;0.10;;
79662;SDS011;69130;48.724;8.982;2023-05-10T02:27:34;0.47;;;0.15;;
79662;SDS011;69130;48.724;8.982;2023-05-10T02:30:01;0.22;;;0.10;;
79662;SDS011;69130;48.724;8.982;2023-05-10T02:32:27;0.00;;;0.00;;
79662;SDS011;69130;48.724;8.982;2023-05-10T02:34:54;3.50;;;0.20;;
79662;SDS011;69130;48.724;8.982;2023-05-10T02:37:21;0.57;;;0.20;;
79662;SDS011;69130;48.724;8.982;2023-05-10T02:39:50;0.45;;;0.17;;
79662;SDS011;69130;48.724;8.982;2023-05-10T02:42:19;0.32;;;0.10;;
79662;SDS011;69130;48.724;8.982;2023-05-10T02:44:47;0.32;;;0.10;;
79662;SDS011;69130;48.724;8.982;2023-05-10T02:47:15;0.20;;;0.10;;
79662;SDS011;69130;48.724;8.982;2023-05-10T02:49:41;0.13;;;0.05;;
79662;SDS011;69130;48.724;8.982;2023-05-10T02:52:06;0.52;;;0.30;;
79662;SDS011;69130;48.724;8.982;2023-05-10T02:54:37;0.43;;;0.20;;
79662;SDS011;69130;48.724;8.982;2023-05-10T02:57:06;1.90;;;0.20;;
79662;SDS011;69130;48.724;8.982;2023-05-10T02:59:33;0.75;;;0.25;;
79662;SDS011;69130;48.724;8.982;2023-05-10T03:01:59;1.17;;;0.40;;
79662;SDS011;69130;48.724;8.982;2023-05-10T03:04:25;1.08;;;0.35;;
79662;SDS011;69130;48.724;8.982;2023-05-10T03:06:51;1.38;;;0.30;;
79662;SDS011;69130;48.724;8.982;2023-05-10T03:09:17;0.88;;;0.40;;
79662;SDS011;69130;48.724;8.982;2023-05-10T03:17:09;0.80;;;0.35;;
79662;SDS011;69130;48.724;8.982;2023-05-10T03:20:03;0.60;;;0.30;;
79662;SDS011;69130;48.724;8.982;2023-05-10T03:22:32;0.77;;;0.40;;
79662;SDS011;69130;48.724;8.982;2023-05-10T03:25:10;0.63;;;0.20;;
79662;SDS011;69130;48.724;8.982;2023-05-10T03:27:38;0.73;;;0.40;;
79662;SDS011;69130;48.724;8.982;2023-05-10T03:30:07;1.80;;;0.30;;
79662;SDS011;69130;48.724;8.982;2023-05-10T03:32:35;1.67;;;0.50;;
79662;SDS011;69130;48.724;8.982;2023-05-10T03:35:01;1.33;;;0.50;;
79662;SDS011;69130;48.724;8.982;2023-05-10T03:39:57;0.90;;;0.40;;
79662;SDS011;69130;48.724;8.982;2023-05-10T03:42:22;2.67;;;0.40;;
79662;SDS011;69130;48.724;8.982;2023-05-10T03:44:47;1.02;;;0.47;;
79662;SDS011;69130;48.724;8.982;2023-05-10T03:47:14;1.05;;;0.32;;
79662;SDS011;69130;48.724;8.982;2023-05-10T03:49:39;1.35;;;0.50;;
79662;SDS011;69130;48.724;8.982;2023-05-10T03:52:05;2.38;;;0.65;;
79662;SDS011;69130;48.724;8.982;2023-05-10T03:54:31;1.15;;;0.60;;
79662;SDS011;69130;48.724;8.982;2023-05-10T03:56:57;1.10;;;0.70;;
79662;SDS011;69130;48.724;8.982;2023-05-10T03:59:22;2.10;;;0.60;;
79662;SDS011;69130;48.724;8.982;2023-05-10T04:01:47;1.73;;;0.70;;
79662;SDS011;69130;48.724;8.982;2023-05-10T04:04:13;1.95;;;0.60;;
79662;SDS011;69130;48.724;8.982;2023-05-10T04:06:38;1.95;;;0.70;;
79662;SDS011;69130;48.724;8.982;2023-05-10T04:09:03;1.63;;;0.47;;
79662;SDS011;69130;48.724;8.982;2023-05-10T04:11:29;1.08;;;0.50;;
79662;SDS011;69130;48.724;8.982;2023-05-10T04:13:54;1.60;;;0.60;;
79662;SDS011;69130;48.724;8.982;2023-05-10T04:16:20;1.60;;;0.68;;
79662;SDS011;69130;48.724;8.982;2023-05-10T04:18:45;0.82;;;0.38;;
79662;SDS011;69130;48.724;8.982;2023-05-10T04:21:11;2.35;;;0.60;;
79662;SDS011;69130;48.724;8.982;2023-05-10T04:23:38;0.95;;;0.40;;
79662;SDS011;69130;48.724;8.982;2023-05-10T04:26:03;0.98;;;0.40;;
79662;SDS011;69130;48.724;8.982;2023-05-10T04:28:29;1.13;;;0.50;;
79662;SDS011;69130;48.724;8.982;2023-05-10T04:31:00;0.98;;;0.40;;
79662;SDS011;69130;48.724;8.982;2023-05-10T04:33:26;2.25;;;0.60;;
79662;SDS011;69130;48.724;8.982;2023-05-10T04:35:51;0.80;;;0.30;;
79662;SDS011;69130;48.724;8.982;2023-05-10T04:38:17;1.23;;;0.40;;
79662;SDS011;69130;48.724;8.982;2023-05-10T04:40:42;1.03;;;0.53;;
79662;SDS011;69130;48.724;8.982;2023-05-10T04:43:07;1.10;;;0.40;;
79662;SDS011;69130;48.724;8.982;2023-05-10T04:45:33;1.17;;;0.47;;
79662;SDS011;69130;48.724;8.982;2023-05-10T04:47:58;0.80;;;0.50;;
79662;SDS011;69130;48.724;8.982;2023-05-10T04:50:23;0.85;;;0.40;;
79662;SDS011;69130;48.724;8.982;2023-05-10T04:52:49;1.37;;;0.50;;
79662;SDS011;69130;48.724;8.982;2023-05-10T04:55:14;1.37;;;0.40;;
79662;SDS011;69130;48.724;8.982;2023-05-10T04:57:39;1.15;;;0.60;;
79662;SDS011;69130;48.724;8.982;2023-05-10T05:00:05;0.90;;;0.40;;
79662;SDS011;69130;48.724;8.982;2023-05-10T05:02:31;1.10;;;0.40;;
79662;SDS011;69130;48.724;8.982;2023-05-10T05:04:56;1.67;;;0.60;;
79662;SDS011;69130;48.724;8.982;2023-05-10T05:07:22;1.45;;;0.68;;
79662;SDS011;69130;48.724;8.982;2023-05-10T05:09:48;0.88;;;0.47;;
79662;SDS011;69130;48.724;8.982;2023-05-10T05:12:13;1.50;;;0.93;;
79662;SDS011;69130;48.724;8.982;2023-05-10T05:14:39;1.25;;;0.40;;
79662;SDS011;69130;48.724;8.982;2023-05-10T05:17:06;1.00;;;0.40;;
79662;SDS011;69130;48.724;8.982;2023-05-10T05:19:31;1.40;;;0.60;;
79662;SDS011;69130;48.724;8.982;2023-05-10T05:21:57;0.60;;;0.25;;
79662;SDS011;69130;48.724;8.982;2023-05-10T05:24:22;1.63;;;0.68;;
79662;SDS011;69130;48.724;8.982;2023-05-10T05:26:48;1.67;;;0.60;;
79662;SDS011;69130;48.724;8.982;2023-05-10T05:29:13;1.55;;;0.50;;
79662;SDS011;69130;48.724;8.982;2023-05-10T05:31:38;1.60;;;0.50;;
79662;SDS011;69130;48.724;8.982;2023-05-10T05:34:04;1.67;;;0.60;;
79662;SDS011;69130;48.724;8.982;2023-05-10T05:36:29;0.63;;;0.30;;
79662;SDS011;69130;48.724;8.982;2023-05-10T05:38:56;1.08;;;0.50;;
79662;SDS011;69130;48.724;8.982;2023-05-10T05:41:22;1.70;;;0.50;;
79662;SDS011;69130;48.724;8.982;2023-05-10T05:43:48;1.70;;;0.60;;
79662;SDS011;69130;48.724;8.982;2023-05-10T05:46:14;1.35;;;0.68;;
79662;SDS011;69130;48.724;8.982;2023-05-10T05:48:39;1.83;;;0.70;;
79662;SDS011;69130;48.724;8.982;2023-05-10T05:51:05;0.80;;;0.50;;
79662;SDS011;69130;48.724;8.982;2023-05-10T05:53:30;3.15;;;1.00;;
79662;SDS011;69130;48.724;8.982;2023-05-10T05:55:56;1.05;;;0.50;;
79662;SDS011;69130;48.724;8.982;2023-05-10T05:58:23;1.45;;;0.63;;
79662;SDS011;69130;48.724;8.982;2023-05-10T06:00:49;0.95;;;0.47;;
79662;SDS011;69130;48.724;8.982;2023-05-10T06:03:15;0.68;;;0.32;;
79662;SDS011;69130;48.724;8.982;2023-05-10T06:05:41;1.42;;;0.60;;
79662;SDS011;69130;48.724;8.982;2023-05-10T06:08:06;0.73;;;0.32;;
79662;SDS011;69130;48.724;8.982;2023-05-10T06:10:31;1.30;;;0.50;;
79662;SDS011;69130;48.724;8.982;2023-05-10T06:12:57;1.20;;;0.50;;
79662;SDS011;69130;48.724;8.982;2023-05-10T06:15:22;1.80;;;0.60;;
79662;SDS011;69130;48.724;8.982;2023-05-10T06:17:47;3.00;;;0.70;;
79662;SDS011;69130;48.724;8.982;2023-05-10T06:20:14;3.13;;;0.57;;
79662;SDS011;69130;48.724;8.982;2023-05-10T06:22:40;1.63;;;0.57;;
79662;SDS011;69130;48.724;8.982;2023-05-10T06:25:05;1.65;;;0.55;;
79662;SDS011;69130;48.724;8.982;2023-05-10T06:27:31;0.88;;;0.50;;
79662;SDS011;69130;48.724;8.982;2023-05-10T06:29:56;1.50;;;0.50;;
79662;SDS011;69130;48.724;8.982;2023-05-10T06:32:22;5.57;;;0.70;;
79662;SDS011;69130;48.724;8.982;2023-05-10T06:34:47;1.90;;;0.60;;
79662;SDS011;69130;48.724;8.982;2023-05-10T06:37:13;1.65;;;0.65;;
79662;SDS011;69130;48.724;8.982;2023-05-10T06:39:38;1.65;;;0.50;;
79662;SDS011;69130;48.724;8.982;2023-05-10T06:42:03;1.88;;;0.68;;
79662;SDS011;69130;48.724;8.982;2023-05-10T06:44:29;1.02;;;0.40;;
79662;SDS011;69130;48.724;8.982;2023-05-10T06:46:55;1.70;;;0.60;;
79662;SDS011;69130;48.724;8.982;2023-05-10T06:49:20;1.30;;;0.55;;
79662;SDS011;69130;48.724;8.982;2023-05-10T06:51:46;0.60;;;0.40;;
79662;SDS011;69130;48.724;8.982;2023-05-10T06:54:11;1.00;;;0.50;;
79662;SDS011;69130;48.724;8.982;2023-05-10T06:56:37;1.50;;;0.50;;
79662;SDS011;69130;48.724;8.982;2023-05-10T06:59:02;2.20;;;0.57;;
79662;SDS011;69130;48.724;8.982;2023-05-10T07:01:27;2.15;;;0.70;;
79662;SDS011;69130;48.724;8.982;2023-05-10T07:03:53;1.33;;;0.50;;
79662;SDS011;69130;48.724;8.982;2023-05-10T07:06:18;1.33;;;0.60;;
79662;SDS011;69130;48.724;8.982;2023-05-10T07:08:43;1.33;;;0.65;;
79662;SDS011;69130;48.724;8.982;2023-05-10T07:11:09;3.50;;;0.75;;
79662;SDS011;69130;48.724;8.982;2023-05-10T07:13:37;0.88;;;0.52;;
79662;SDS011;69130;48.724;8.982;2023-05-10T07:16:06;1.80;;;0.88;;
79662;SDS011;69130;48.724;8.982;2023-05-10T07:18:32;1.35;;;0.60;;
79662;SDS011;69130;48.724;8.982;2023-05-10T07:20:58;1.85;;;0.60;;
79662;SDS011;69130;48.724;8.982;2023-05-10T07:23:24;1.65;;;0.65;;
79662;SDS011;69130;48.724;8.982;2023-05-10T07:25:49;1.05;;;0.40;;
79662;SDS011;69130;48.724;8.982;2023-05-10T07:28:17;1.58;;;0.50;;
79662;SDS011;69130;48.724;8.982;2023-05-10T07:30:43;0.98;;;0.50;;
79662;SDS011;69130;48.724;8.982;2023-05-10T07:33:09;1.13;;;0.45;;
79662;SDS011;69130;48.724;8.982;2023-05-10T07:35:36;1.55;;;0.50;;
79662;SDS011;69130;48.724;8.982;2023-05-10T07:38:01;1.38;;;0.50;;
79662;SDS011;69130;48.724;8.982;2023-05-10T07:40:27;0.60;;;0.38;;
79662;SDS011;69130;48.724;8.982;2023-05-10T07:42:53;0.70;;;0.40;;
79662;SDS011;69130;48.724;8.982;2023-05-10T07:45:18;0.70;;;0.40;;
79662;SDS011;69130;48.724;8.982;2023-05-10T07:47:44;0.82;;;0.40;;
79662;SDS011;69130;48.724;8.982;2023-05-10T07:50:10;0.77;;;0.40;;
79662;SDS011;69130;48.724;8.982;2023-05-10T07:52:35;1.15;;;0.50;;
79662;SDS011;69130;48.724;8.982;2023-05-10T07:55:00;1.42;;;0.50;;
79662;SDS011;69130;48.724;8.982;2023-05-10T07:57:26;1.02;;;0.40;;
79662;SDS011;69130;48.724;8.982;2023-05-10T07:59:51;0.83;;;0.30;;
79662;SDS011;69130;48.724;8.982;2023-05-10T08:02:17;0.45;;;0.28;;
79662;SDS011;69130;48.724;8.982;2023-05-10T08:04:42;1.85;;;0.50;;
79662;SDS011;69130;48.724;8.982;2023-05-10T08:07:07;1.20;;;0.40;;
79662;SDS011;69130;48.724;8.982;2023-05-10T08:09:33;1.70;;;0.43;;
79662;SDS011;69130;48.724;8.982;2023-05-10T08:11:58;0.75;;;0.35;;
79662;SDS011;69130;48.724;8.982;2023-05-10T08:14:25;1.55;;;0.50;;
79662;SDS011;69130;48.724;8.982;2023-05-10T08:16:50;0.85;;;0.43;;
79662;SDS011;69130;48.724;8.982;2023-05-10T08:19:16;1.05;;;0.40;;
79662;SDS011;69130;48.724;8.982;2023-05-10T08:21:44;0.88;;;0.40;;
79662;SDS011;69130;48.724;8.982;2023-05-10T08:24:10;2.47;;;0.20;;
79662;SDS011;69130;48.724;8.982;2023-05-10T08:26:35;1.10;;;0.30;;
79662;SDS011;69130;48.724;8.982;2023-05-10T08:29:01;0.55;;;0.30;;
79662;SDS011;69130;48.724;8.982;2023-05-10T08:31:26;2.35;;;0.30;;
79662;SDS011;69130;48.724;8.982;2023-05-10T08:33:51;1.73;;;0.40;;
79662;SDS011;69130;48.724;8.982;2023-05-10T08:36:17;0.68;;;0.20;;
79662;SDS011;69130;48.724;8.982;2023-05-10T08:38:46;0.22;;;0.10;;
79662;SDS011;69130;48.724;8.982;2023-05-10T08:41:20;0.82;;;0.10;;
79662;SDS011;69130;48.724;8.982;2023-05-10T08:43:49;0.43;;;0.22;;
79662;SDS011;69130;48.724;8.982;2023-05-10T08:46:16;1.38;;;0.20;;
79662;SDS011;69130;48.724;8.982;2023-05-10T08:48:43;1.17;;;0.25;;
79662;SDS011;69130;48.724;8.982;2023-05-10T08:51:10;0.80;;;0.30;;
79662;SDS011;69130;48.724;8.982;2023-05-10T08:53:38;0.93;;;0.20;;
79662;SDS011;69130;48.724;8.982;2023-05-10T08:56:04;0.60;;;0.15;;
79662;SDS011;69130;48.724;8.982;2023-05-10T08:58:30;0.93;;;0.50;;
79662;SDS011;69130;48.724;8.982;2023-05-10T09:00:55;0.73;;;0.40;;
79662;SDS011;69130;48.724;8.982;2023-05-10T09:03:22;0.50;;;0.20;;
79662;SDS011;69130;48.724;8.982;2023-05-10T09:05:48;0.32;;;0.20;;
79662;SDS011;69130;48.724;8.982;2023-05-10T09:08:14;1.25;;;0.30;;
79662;SDS011;69130;48.724;8.982;2023-05-10T09:10:44;0.45;;;0.10;;
79662;SDS011;69130;48.724;8.982;2023-05-10T09:13:12;0.57;;;0.20;;
79662;SDS011;69130;48.724;8.982;2023-05-10T09:15:40;0.52;;;0.20;;
79662;SDS011;69130;48.724;8.982;2023-05-10T09:18:05;2.70;;;0.40;;
79662;SDS011;69130;48.724;8.982;2023-05-10T09:20:30;1.58;;;0.70;;
79662;SDS011;69130;48.724;8.982;2023-05-10T09:22:56;3.17;;;0.40;;
79662;SDS011;69130;48.724;8.982;2023-05-10T09:25:21;0.32;;;0.10;;
79662;SDS011;69130;48.724;8.982;2023-05-10T09:27:47;0.90;;;0.20;;
79662;SDS011;69130;48.724;8.982;2023-05-10T09:30:17;0.55;;;0.20;;
79662;SDS011;69130;48.724;8.982;2023-05-10T09:32:53;0.28;;;0.10;;
79662;SDS011;69130;48.724;8.982;2023-05-10T09:35:20;0.43;;;0.20;;
79662;SDS011;69130;48.724;8.982;2023-05-10T09:37:51;1.70;;;0.15;;
79662;SDS011;69130;48.724;8.982;2023-05-10T09:40:25;0.25;;;0.15;;
79662;SDS011;69130;48.724;8.982;2023-05-10T09:45:26;0.22;;;0.03;;
79662;SDS011;69130;48.724;8.982;2023-05-10T09:47:52;2.03;;;0.40;;
79662;SDS011;69130;48.724;8.982;2023-05-10T09:50:18;0.30;;;0.10;;
79662;SDS011;69130;48.724;8.982;2023-05-10T09:55:22;0.63;;;0.20;;
79662;SDS011;69130;48.724;8.982;2023-05-10T09:57:49;1.35;;;0.10;;
79662;SDS011;69130;48.724;8.982;2023-05-10T10:00:23;1.77;;;0.20;;
79662;SDS011;69130;48.724;8.982;2023-05-10T10:02:58;0.52;;;0.10;;
79662;SDS011;69130;48.724;8.982;2023-05-10T10:05:27;0.22;;;0.20;;
79662;SDS011;69130;48.724;8.982;2023-05-10T10:08:01;0.43;;;0.20;;
79662;SDS011;69130;48.724;8.982;2023-05-10T10:10:28;0.30;;;0.25;;
79662;SDS011;69130;48.724;8.982;2023-05-10T10:12:55;0.75;;;0.30;;
79662;SDS011;69130;48.724;8.982;2023-05-10T10:15:21;0.68;;;0.20;;
79662;SDS011;69130;48.724;8.982;2023-05-10T10:17:48;1.85;;;0.22;;
79662;SDS011;69130;48.724;8.982;2023-05-10T10:20:14;0.25;;;0.10;;
79662;SDS011;69130;48.724;8.982;2023-05-10T10:22:40;0.75;;;0.20;;
79662;SDS011;69130;48.724;8.982;2023-05-10T10:25:06;0.22;;;0.20;;
79662;SDS011;69130;48.724;8.982;2023-05-10T10:27:43;0.90;;;0.30;;
79662;SDS011;69130;48.724;8.982;2023-05-10T10:35:35;1.30;;;0.30;;
79662;SDS011;69130;48.724;8.982;2023-05-10T10:38:01;0.90;;;0.30;;
79662;SDS011;69130;48.724;8.982;2023-05-10T10:40:30;1.77;;;0.35;;
79662;SDS011;69130;48.724;8.982;2023-05-10T10:42:58;0.70;;;0.43;;
79662;SDS011;69130;48.724;8.982;2023-05-10T10:45:56;0.45;;;0.20;;
79662;SDS011;69130;48.724;8.982;2023-05-10T10:51:16;1.13;;;0.77;;
79662;SDS011;69130;48.724;8.982;2023-05-10T10:53:43;0.63;;;0.30;;
79662;SDS011;69130;48.724;8.982;2023-05-10T10:56:09;2.20;;;0.20;;
79662;SDS011;69130;48.724;8.982;2023-05-10T10:58:37;1.65;;;0.52;;
79662;SDS011;69130;48.724;8.982;2023-05-10T11:03:38;0.85;;;0.28;;
79662;SDS011;69130;48.724;8.982;2023-05-10T11:06:03;0.80;;;0.50;;
79662;SDS011;69130;48.724;8.982;2023-05-10T11:08:30;1.42;;;0.73;;
79662;SDS011;69130;48.724;8.982;2023-05-10T11:15:56;0.50;;;0.30;;
79662;SDS011;69130;48.724;8.982;2023-05-10T11:18:31;0.28;;;0.17;;
79662;SDS011;69130;48.724;8.982;2023-05-10T11:21:00;0.93;;;0.20;;
79662;SDS011;69130;48.724;8.982;2023-05-10T11:23:47;1.40;;;0.45;;
79662;SDS011;69130;48.724;8.982;2023-05-10T11:26:15;0.95;;;0.40;;
79662;SDS011;69130;48.724;8.982;2023-05-10T11:28:41;1.02;;;0.40;;
79662;SDS011;69130;48.724;8.982;2023-05-10T11:31:10;1.13;;;0.40;;
79662;SDS011;69130;48.724;8.982;2023-05-10T11:33:47;1.98;;;0.20;;
79662;SDS011;69130;48.724;8.982;2023-05-10T11:38:46;2.10;;;0.30;;
79662;SDS011;69130;48.724;8.982;2023-05-10T11:41:13;1.20;;;0.40;;
79662;SDS011;69130;48.724;8.982;2023-05-10T11:43:39;3.28;;;0.50;;
79662;SDS011;69130;48.724;8.982;2023-05-10T11:46:06;0.80;;;0.40;;
79662;SDS011;69130;48.724;8.982;2023-05-10T11:48:32;2.15;;;0.40;;
79662;SDS011;69130;48.724;8.982;2023-05-10T11:50:58;1.10;;;0.20;;
79662;SDS011;69130;48.724;8.982;2023-05-10T11:53:25;1.08;;;0.30;;
79662;SDS011;69130;48.724;8.982;2023-05-10T11:55:52;0.50;;;0.30;;
79662;SDS011;69130;48.724;8.982;2023-05-10T11:58:17;0.60;;;0.25;;
79662;SDS011;69130;48.724;8.982;2023-05-10T12:00:43;0.70;;;0.50;;
79662;SDS011;69130;48.724;8.982;2023-05-10T12:03:10;0.98;;;0.32;;
79662;SDS011;69130;48.724;8.982;2023-05-10T12:05:36;2.00;;;0.63;;
79662;SDS011;69130;48.724;8.982;2023-05-10T12:08:14;1.40;;;0.45;;
79662;SDS011;69130;48.724;8.982;2023-05-10T12:10:40;2.67;;;0.43;;
79662;SDS011;69130;48.724;8.982;2023-05-10T12:13:13;0.90;;;0.57;;
79662;SDS011;69130;48.724;8.982;2023-05-10T12:15:39;2.72;;;0.50;;
79662;SDS011;69130;48.724;8.982;2023-05-10T12:18:05;0.93;;;0.40;;
79662;SDS011;69130;48.724;8.982;2023-05-10T12:20:30;2.05;;;0.40;;
79662;SDS011;69130;48.724;8.982;2023-05-10T12:22:56;0.50;;;0.40;;
79662;SDS011;69130;48.724;8.982;2023-05-10T12:25:24;1.40;;;0.47;;
79662;SDS011;69130;48.724;8.982;2023-05-10T12:27:55;0.65;;;0.32;;
79662;SDS011;69130;48.724;8.982;2023-05-10T12:30:29;3.05;;;0.55;;
79662;SDS011;69130;48.724;8.982;2023-05-10T12:33:30;1.25;;;0.50;;
79662;SDS011;69130;48.724;8.982;2023-05-10T12:35:52;1.45;;;0.43;;
79662;SDS011;69130;48.724;8.982;2023-05-10T12:38:23;4.15;;;0.38;;
79662;SDS011;69130;48.724;8.982;2023-05-10T12:40:58;1.15;;;0.40;;
79662;SDS011;69130;48.724;8.982;2023-05-10T12:43:24;2.53;;;0.38;;
79662;SDS011;69130;48.724;8.982;2023-05-10T12:45:50;4.13;;;0.45;;
79662;SDS011;69130;48.724;8.982;2023-05-10T12:48:15;1.52;;;0.40;;
79662;SDS011;69130;48.724;8.982;2023-05-10T12:50:41;2.55;;;0.40;;
79662;SDS011;69130;48.724;8.982;2023-05-10T12:53:06;1.73;;;0.40;;
79662;SDS011;69130;48.724;8.982;2023-05-10T12:55:32;0.60;;;0.20;;
79662;SDS011;69130;48.724;8.982;2023-05-10T12:57:57;2.65;;;0.70;;
79662;SDS011;69130;48.724;8.982;2023-05-10T13:00:23;1.95;;;0.70;;
79662;SDS011;69130;48.724;8.982;2023-05-10T13:02:48;1.85;;;0.40;;
79662;SDS011;69130;48.724;8.982;2023-05-10T13:05:14;1.38;;;0.55;;
79662;SDS011;69130;48.724;8.982;2023-05-10T13:07:42;2.88;;;0.40;;
79662;SDS011;69130;48.724;8.982;2023-05-10T13:10:09;2.47;;;0.65;;
79662;SDS011;69130;48.724;8.982;2023-05-10T13:12:34;2.83;;;0.45;;
79662;SDS011;69130;48.724;8.982;2023-05-10T13:15:00;3.50;;;0.50;;
79662;SDS011;69130;48.724;8.982;2023-05-10T13:17:26;1.35;;;0.40;;
79662;SDS011;69130;48.724;8.982;2023-05-10T13:19:51;0.90;;;0.32;;
79662;SDS011;69130;48.724;8.982;2023-05-10T13:22:16;1.23;;;0.60;;
79662;SDS011;69130;48.724;8.982;2023-05-10T13:24:42;2.33;;;0.50;;
79662;SDS011;69130;48.724;8.982;2023-05-10T13:27:07;1.02;;;0.47;;
79662;SDS011;69130;48.724;8.982;2023-05-10T13:29:33;2.08;;;0.50;;
79662;SDS011;69130;48.724;8.982;2023-05-10T13:31:58;2.77;;;0.67;;
79662;SDS011;69130;48.724;8.982;2023-05-10T13:34:24;1.17;;;0.43;;
79662;SDS011;69130;48.724;8.982;2023-05-10T13:36:49;1.70;;;0.40;;
79662;SDS011;69130;48.724;8.982;2023-05-10T13:39:14;4.47;;;0.80;;
79662;SDS011;69130;48.724;8.982;2023-05-10T13:41:40;0.75;;;0.40;;
79662;SDS011;69130;48.724;8.982;2023-05-10T13:44:06;2.45;;;0.52;;
79662;SDS011;69130;48.724;8.982;2023-05-10T13:46:31;1.88;;;0.50;;
79662;SDS011;69130;48.724;8.982;2023-05-10T13:48:56;1.33;;;0.40;;
79662;SDS011;69130;48.724;8.982;2023-05-10T13:51:22;0.80;;;0.40;;
79662;SDS011;69130;48.724;8.982;2023-05-10T13:53:48;1.05;;;0.30;;
79662;SDS011;69130;48.724;8.982;2023-05-10T13:56:13;1.42;;;0.57;;
79662;SDS011;69130;48.724;8.982;2023-05-10T13:58:39;1.10;;;0.32;;
79662;SDS011;69130;48.724;8.982;2023-05-10T14:01:04;0.65;;;0.40;;
79662;SDS011;69130;48.724;8.982;2023-05-10T14:03:30;0.65;;;0.38;;
79662;SDS011;69130;48.724;8.982;2023-05-10T14:05:55;1.88;;;0.40;;
79662;SDS011;69130;48.724;8.982;2023-05-10T14:08:21;2.20;;;0.43;;
79662;SDS011;69130;48.724;8.982;2023-05-10T14:10:47;2.63;;;0.50;;
79662;SDS011;69130;48.724;8.982;2023-05-10T14:13:13;3.53;;;1.15;;
79662;SDS011;69130;48.724;8.982;2023-05-10T14:15:40;1.42;;;0.70;;
79662;SDS011;69130;48.724;8.982;2023-05-10T14:18:05;1.00;;;0.43;;
79662;SDS011;69130;48.724;8.982;2023-05-10T14:20:31;1.25;;;0.50;;
79662;SDS011;69130;48.724;8.982;2023-05-10T14:22:58;1.85;;;0.40;;
79662;SDS011;69130;48.724;8.982;2023-05-10T14:25:24;3.22;;;0.40;;
79662;SDS011;69130;48.724;8.982;2023-05-10T14:27:49;1.58;;;0.70;;
79662;SDS011;69130;48.724;8.982;2023-05-10T14:30:15;1.38;;;0.30;;
79662;SDS011;69130;48.724;8.982;2023-05-10T14:32:41;2.55;;;0.60;;
79662;SDS011;69130;48.724;8.982;2023-05-10T14:35:06;1.15;;;0.40;;
79662;SDS011;69130;48.724;8.982;2023-05-10T14:37:32;0.82;;;0.30;;
79662;SDS011;69130;48.724;8.982;2023-05-10T14:39:58;1.05;;;0.60;;
79662;SDS011;69130;48.724;8.982;2023-05-10T14:42:23;0.80;;;0.40;;
79662;SDS011;69130;48.724;8.982;2023-05-10T14:44:48;0.52;;;0.30;;
79662;SDS011;69130;48.724;8.982;2023-05-10T14:47:14;2.55;;;0.40;;
79662;SDS011;69130;48.724;8.982;2023-05-10T14:49:39;0.50;;;0.30;;
79662;SDS011;69130;48.724;8.982;2023-05-10T14:52:05;1.10;;;0.40;;
79662;SDS011;69130;48.724;8.982;2023-05-10T14:54:31;0.93;;;0.28;;
79662;SDS011;69130;48.724;8.982;2023-05-10T14:56:58;1.08;;;0.60;;
79662;SDS011;69130;48.724;8.982;2023-05-10T14:59:23;2.22;;;0.50;;
79662;SDS011;69130;48.724;8.982;2023-05-10T15:01:49;0.60;;;0.30;;
79662;SDS011;69130;48.724;8.982;2023-05-10T15:04:14;0.55;;;0.35;;
79662;SDS011;69130;48.724;8.982;2023-05-10T15:06:41;1.13;;;0.40;;
79662;SDS011;69130;48.724;8.982;2023-05-10T15:09:06;1.85;;;0.50;;
79662;SDS011;69130;48.724;8.982;2023-05-10T15:11:32;0.82;;;0.40;;
79662;SDS011;69130;48.724;8.982;2023-05-10T15:13:57;0.85;;;0.43;;
79662;SDS011;69130;48.724;8.982;2023-05-10T15:16:23;3.30;;;0.68;;
79662;SDS011;69130;48.724;8.982;2023-05-10T15:18:48;1.83;;;0.55;;
79662;SDS011;69130;48.724;8.982;2023-05-10T15:21:14;1.67;;;0.38;;
79662;SDS011;69130;48.724;8.982;2023-05-10T15:23:40;1.30;;;0.40;;
79662;SDS011;69130;48.724;8.982;2023-05-10T15:26:05;1.05;;;0.50;;
79662;SDS011;69130;48.724;8.982;2023-05-10T15:28:30;2.33;;;0.52;;
79662;SDS011;69130;48.724;8.982;2023-05-10T15:30:56;2.92;;;0.50;;